Tropical Cyclones
[Index]
Main Index Home Page Stock Weather Photos Extreme Storms Discussion Storm News and Storm Chasing Reports Tropical Cyclones / Hurricanes / Typhoons Weather Data and Links Wild Fires / Bushfires Weather Observation Techniques Weather Picture Catalogue Tornado Pictures and Reports Stock Video Footage and DVDs for sale
Season 1987-1988 Tropical Cyclone ANNE Track Map
Season 1987-1988 Summaries: [BoM-AU] [JTWC-AU] [JTWC-SIO] [JTWC-SPAC] [JTWC-SH]
<<- Previous TC | JTWC 1987-1988 Season | Next TC ->>

click for intensity scale information  Lat/long Grid: Show Hide

 Date Labels: Show Hide

Joint Typhoon Warning Centre Cyclone Data

Name: ANNE

06 Jan 1988 00:00 UTC to 14 Jan 1988 00:00 UTC

    date/time    lat    long     hPa   cat  kts
1988-01-06 00    3.6   178.5W                 25          
1988-01-06 06    3.7   178.8W                 25          
1988-01-06 12    3.8   179.1W                 25          
1988-01-06 18    4.2   179.9                  25          
1988-01-07 00    4.6   179.2                  25          
1988-01-07 06    5.2   178.5                  30          
1988-01-07 12    5.8   177.8                  35          
1988-01-07 18    6.3   177.0                  35          
1988-01-08 00    6.8   176.0                  35          
1988-01-08 06    7.2   174.9            1     40          
1988-01-08 12    7.7   174.2            1     45          
1988-01-08 18    8.3   173.5            1     45          
1988-01-09 00    9.0   172.9            1     50          
1988-01-09 06    9.7   172.0            2     55          
1988-01-09 12   10.0   171.1            2     65          
1988-01-09 18   10.5   170.1            3     75          
1988-01-10 00   11.4   169.1            3     90          
1988-01-10 06   12.1   168.2            4    100          
1988-01-10 12   13.0   167.1            4    115          
1988-01-10 18   13.9   166.0            5    130          
1988-01-11 00   15.0   165.4            5    140          
1988-01-11 06   15.9   164.8            5    135          
1988-01-11 12   16.8   164.3            5    130          
1988-01-11 18   17.6   164.2            5    125          
1988-01-12 00   18.5   164.3            4    115          
1988-01-12 06   19.4   164.6            4    100          
1988-01-12 12   20.1   165.2            3     85          
1988-01-12 18   20.8   165.5            3     75          
1988-01-13 00   21.7   165.8            2     60          
1988-01-13 06   22.7   166.5            1     50          
1988-01-13 12   23.4   167.2            1     45          
1988-01-13 18   24.4   168.4            1     40          
1988-01-14 00   25.2   170.1                  30          
Winds are 1-min average.

Tropical cyclone tracks developed by Michael Bath using data from the Joint Typhoon Warning Centre Best Tracks and Google Maps.


[Australian Severe Weather index] [Copyright Notice] [Email Contacts] [Search This Site] [Privacy Policy]
Document: tropical_cyclone_anne.htm Updated: 18 September 2016